Time;durP1;ratioP1;P1;durP2;ratioP2;P2;SDS_P1;SDS_P2;PMS_P1;PMS_P2;Temp;Humidity;BMP_temperature;BMP_pressure;BME280_temperature;BME280_humidity;BME280_pressure;Samples;Min_cycle;Max_cycle;Signal;HPM_P1;HPM_P2
2021/04/26 00:00:59;;;;;;;20.08;9.30;;;;;;;;;;5113238;28;20034;-57
2021/04/26 00:03:25;;;;;;;19.17;9.43;;;;;;;;;;5113509;28;20413;-56
2021/04/26 00:05:52;;;;;;;18.15;10.25;;;;;;;;;;5113319;28;20024;-57
2021/04/26 00:08:19;;;;;;;13.98;10.10;;;;;;;;;;5113413;28;20103;-57
2021/04/26 00:10:46;;;;;;;13.88;9.95;;;;;;;;;;5113275;28;20152;-56
2021/04/26 00:13:13;;;;;;;15.35;10.88;;;;;;;;;;5113317;28;20027;-56
2021/04/26 00:15:39;;;;;;;16.45;10.40;;;;;;;;;;5113119;28;20474;-56
2021/04/26 00:18:06;;;;;;;14.88;11.25;;;;;;;;;;5113266;28;20028;-56
2021/04/26 00:20:33;;;;;;;16.08;11.00;;;;;;;;;;5113046;28;20055;-57
2021/04/26 00:23:01;;;;;;;13.88;10.10;;;;;;;;;;5113156;28;20047;-56
2021/04/26 00:25:28;;;;;;;11.65;9.13;;;;;;;;;;5112698;28;20047;-56
2021/04/26 00:27:55;;;;;;;20.70;10.40;;;;;;;;;;5113030;28;20026;-56
2021/04/26 00:30:23;;;;;;;16.88;10.23;;;;;;;;;;5112951;28;20051;-57
2021/04/26 00:32:51;;;;;;;14.65;10.45;;;;;;;;;;5113167;28;20024;-56
2021/04/26 00:35:18;;;;;;;16.13;10.90;;;;;;;;;;5117331;28;20023;-57
2021/04/26 00:37:45;;;;;;;18.42;11.68;;;;;;;;;;5117257;28;20495;-56
2021/04/26 00:40:12;;;;;;;15.37;11.43;;;;;;;;;;5117311;28;20040;-56
2021/04/26 00:42:40;;;;;;;18.30;10.70;;;;;;;;;;5117226;28;20031;-56
2021/04/26 00:45:09;;;;;;;16.07;9.90;;;;;;;;;;5117241;28;20076;-56
2021/04/26 00:47:40;;;;;;;17.70;10.20;;;;;;;;;;5117140;28;20020;-56
2021/04/26 00:50:08;;;;;;;15.03;9.47;;;;;;;;;;5117083;28;20024;-56
2021/04/26 00:52:35;;;;;;;15.90;9.80;;;;;;;;;;5117019;28;20027;-56
2021/04/26 00:55:02;;;;;;;13.90;9.73;;;;;;;;;;5117022;28;20024;-56
2021/04/26 00:57:29;;;;;;;15.33;9.70;;;;;;;;;;5116899;28;20114;-56
2021/04/26 00:59:56;;;;;;;16.30;10.50;;;;;;;;;;5116848;28;20391;-57
2021/04/26 01:02:26;;;;;;;13.67;10.33;;;;;;;;;;5116795;28;20039;-57
2021/04/26 01:04:54;;;;;;;12.90;9.17;;;;;;;;;;5116692;28;20410;-57
2021/04/26 01:07:21;;;;;;;20.50;9.93;;;;;;;;;;5117000;28;20036;-57
2021/04/26 01:09:48;;;;;;;14.17;9.47;;;;;;;;;;5116623;28;20387;-57
2021/04/26 01:12:42;;;;;;;13.10;8.63;;;;;;;;;;5116616;28;20035;-57
2021/04/26 01:15:27;;;;;;;17.92;9.00;;;;;;;;;;5116624;28;20375;-57
2021/04/26 01:17:58;;;;;;;27.33;20.03;;;;;;;;;;5116606;28;20080;-57
2021/04/26 01:20:36;;;;;;;22.20;16.87;;;;;;;;;;5116192;28;20142;-57
2021/04/26 01:23:22;;;;;;;24.57;17.33;;;;;;;;;;5116549;28;20055;-57
2021/04/26 01:26:02;;;;;;;42.10;25.67;;;;;;;;;;5115869;27;20082;-57
2021/04/26 01:29:01;;;;;;;43.07;27.23;;;;;;;;;;5116384;28;20019;-57
2021/04/26 01:31:38;;;;;;;46.70;27.77;;;;;;;;;;5060852;28;20071;-57
2021/04/26 01:34:05;;;;;;;34.30;26.53;;;;;;;;;;5116190;28;20023;-57
2021/04/26 01:36:33;;;;;;;44.10;27.13;;;;;;;;;;5116084;28;20027;-57
2021/04/26 01:39:01;;;;;;;38.90;26.17;;;;;;;;;;5116044;28;20527;-57
2021/04/26 01:41:29;;;;;;;38.83;29.37;;;;;;;;;;5116076;28;20078;-57
2021/04/26 01:43:56;;;;;;;35.03;23.70;;;;;;;;;;5115959;28;20103;-57
2021/04/26 01:46:25;;;;;;;33.37;22.97;;;;;;;;;;5114641;28;20027;-57
2021/04/26 01:48:53;;;;;;;35.37;23.63;;;;;;;;;;5115949;28;20482;-57
2021/04/26 01:51:20;;;;;;;43.30;27.10;;;;;;;;;;5115945;28;20152;-57
2021/04/26 01:53:47;;;;;;;33.50;24.93;;;;;;;;;;5115764;28;20019;-57
2021/04/26 01:56:14;;;;;;;40.50;25.07;;;;;;;;;;5115907;28;20024;-57
2021/04/26 01:58:42;;;;;;;49.13;27.90;;;;;;;;;;5115791;28;20562;-57
2021/04/26 02:01:10;;;;;;;41.03;27.73;;;;;;;;;;5115636;28;20410;-57
2021/04/26 02:03:36;;;;;;;41.40;26.53;;;;;;;;;;5115610;28;20019;-56
2021/04/26 02:06:03;;;;;;;44.67;26.07;;;;;;;;;;5115646;28;20122;-56
2021/04/26 02:08:30;;;;;;;39.00;26.00;;;;;;;;;;5115510;28;20030;-56
2021/04/26 02:10:57;;;;;;;35.33;25.87;;;;;;;;;;5115525;28;20115;-56
2021/04/26 02:13:25;;;;;;;47.23;29.23;;;;;;;;;;5097367;28;20432;-56
2021/04/26 02:15:53;;;;;;;44.60;27.13;;;;;;;;;;5115358;28;20020;-56
2021/04/26 02:18:19;;;;;;;41.30;29.80;;;;;;;;;;5115341;28;20081;-56
2021/04/26 02:20:46;;;;;;;51.87;31.97;;;;;;;;;;5115229;28;20043;-56
2021/04/26 02:23:13;;;;;;;45.90;31.27;;;;;;;;;;5115151;28;20463;-56
2021/04/26 02:25:41;;;;;;;44.27;29.60;;;;;;;;;;5114618;27;20514;-56
2021/04/26 02:28:08;;;;;;;43.93;30.83;;;;;;;;;;5115282;28;20069;-56
2021/04/26 02:30:35;;;;;;;45.93;28.90;;;;;;;;;;5115340;28;20387;-56
2021/04/26 02:33:20;;;;;;;47.37;31.53;;;;;;;;;;5115014;28;20015;-56
2021/04/26 02:35:49;;;;;;;45.80;29.25;;;;;;;;;;5115030;28;20028;-56
2021/04/26 02:38:17;;;;;;;47.77;29.50;;;;;;;;;;5114916;28;20390;-56
2021/04/26 02:40:46;;;;;;;47.60;30.33;;;;;;;;;;5114842;28;20036;-56
2021/04/26 02:43:16;;;;;;;49.27;31.67;;;;;;;;;;5114816;28;20028;-56
2021/04/26 02:45:50;;;;;;;42.87;28.33;;;;;;;;;;5114793;28;20057;-56
2021/04/26 02:48:17;;;;;;;47.33;28.33;;;;;;;;;;5114745;28;20031;-56
2021/04/26 02:50:45;;;;;;;45.70;31.80;;;;;;;;;;5114611;28;20027;-56
2021/04/26 02:53:16;;;;;;;44.27;29.10;;;;;;;;;;5114716;28;20023;-56
2021/04/26 02:55:43;;;;;;;40.43;27.60;;;;;;;;;;5114435;28;20101;-55
2021/04/26 02:58:11;;;;;;;43.53;30.23;;;;;;;;;;5114527;28;20100;-56
2021/04/26 03:00:38;;;;;;;41.47;28.70;;;;;;;;;;5114492;28;20032;-56
2021/04/26 03:03:05;;;;;;;43.77;28.43;;;;;;;;;;5114460;28;20024;-57
2021/04/26 03:05:32;;;;;;;43.03;30.07;;;;;;;;;;5114300;28;20026;-56
2021/04/26 03:07:58;;;;;;;41.60;26.63;;;;;;;;;;5114489;28;20028;-55
2021/04/26 03:10:25;;;;;;;47.63;28.30;;;;;;;;;;5114359;28;20051;-56
2021/04/26 03:12:53;;;;;;;40.07;26.73;;;;;;;;;;5114407;28;20076;-56
2021/04/26 03:15:21;;;;;;;47.00;30.77;;;;;;;;;;5114388;28;20416;-56
2021/04/26 03:17:49;;;;;;;48.73;30.73;;;;;;;;;;5114113;28;20394;-56
2021/04/26 03:20:17;;;;;;;39.47;29.03;;;;;;;;;;5114003;28;20088;-56
2021/04/26 03:22:44;;;;;;;41.17;29.50;;;;;;;;;;5114010;28;20022;-56
2021/04/26 03:25:11;;;;;;;46.07;29.30;;;;;;;;;;5113637;27;20111;-56
2021/04/26 03:27:39;;;;;;;43.73;27.90;;;;;;;;;;5113926;28;20114;-56
2021/04/26 03:30:06;;;;;;;42.47;27.70;;;;;;;;;;5113897;28;20032;-55
2021/04/26 03:32:33;;;;;;;47.33;32.50;;;;;;;;;;5114104;28;20420;-56
2021/04/26 03:35:06;;;;;;;45.23;30.00;;;;;;;;;;5113958;28;20141;-56
2021/04/26 03:37:41;;;;;;;46.17;30.23;;;;;;;;;;5113530;28;20148;-56
2021/04/26 03:40:10;;;;;;;45.88;30.75;;;;;;;;;;5113522;28;20118;-57
2021/04/26 03:42:45;;;;;;;44.57;28.17;;;;;;;;;;5113582;28;20031;-56
2021/04/26 03:45:17;;;;;;;42.73;29.43;;;;;;;;;;5113698;28;20034;-56
2021/04/26 03:47:52;;;;;;;49.50;29.90;;;;;;;;;;5112370;28;20036;-57
2021/04/26 03:50:20;;;;;;;44.23;26.60;;;;;;;;;;5113712;28;20020;-56
2021/04/26 03:52:49;;;;;;;52.07;30.40;;;;;;;;;;5113550;28;20161;-56
2021/04/26 03:55:23;;;;;;;46.03;29.40;;;;;;;;;;5113438;28;20157;-56
2021/04/26 03:57:59;;;;;;;49.47;29.70;;;;;;;;;;5113461;28;20393;-56
2021/04/26 04:00:30;;;;;;;42.20;27.83;;;;;;;;;;5113040;28;20506;-56
2021/04/26 04:03:05;;;;;;;38.87;26.60;;;;;;;;;;5113438;28;20026;-56
2021/04/26 04:05:45;;;;;;;45.45;27.80;;;;;;;;;;5113516;28;20023;-56
2021/04/26 04:08:15;;;;;;;41.40;28.60;;;;;;;;;;5112418;28;20027;-56
2021/04/26 04:10:52;;;;;;;52.70;30.73;;;;;;;;;;5112960;28;20431;-57
2021/04/26 04:13:23;;;;;;;47.53;30.97;;;;;;;;;;5113269;28;20027;-56
2021/04/26 04:15:54;;;;;;;39.93;28.50;;;;;;;;;;5112951;28;20102;-56
2021/04/26 04:18:25;;;;;;;41.23;26.97;;;;;;;;;;5107353;28;20032;-56
2021/04/26 04:21:00;;;;;;;44.67;29.00;;;;;;;;;;5094774;28;20457;-57
2021/04/26 04:23:26;;;;;;;43.67;29.23;;;;;;;;;;5113318;28;20023;-57
2021/04/26 04:25:53;;;;;;;47.80;30.00;;;;;;;;;;5112845;28;20077;-57
2021/04/26 04:28:20;;;;;;;47.60;29.53;;;;;;;;;;5113167;28;20032;-57
2021/04/26 04:30:48;;;;;;;42.43;26.33;;;;;;;;;;5113117;28;20027;-56
2021/04/26 04:33:15;;;;;;;43.10;28.63;;;;;;;;;;5113002;28;20028;-57
2021/04/26 04:35:42;;;;;;;52.70;30.63;;;;;;;;;;5112920;28;20072;-56
2021/04/26 04:38:09;;;;;;;37.70;25.63;;;;;;;;;;5113157;28;20041;-56
2021/04/26 04:40:36;;;;;;;51.07;31.67;;;;;;;;;;5112894;28;20043;-56
2021/04/26 04:43:02;;;;;;;45.10;28.80;;;;;;;;;;5112853;28;20391;-56
2021/04/26 04:45:29;;;;;;;44.93;28.23;;;;;;;;;;5113044;28;20111;-56
2021/04/26 04:47:56;;;;;;;48.13;31.20;;;;;;;;;;5113018;28;20031;-56
2021/04/26 04:50:23;;;;;;;50.47;31.23;;;;;;;;;;5112951;28;20055;-56
2021/04/26 04:52:49;;;;;;;44.53;28.27;;;;;;;;;;5113011;28;20045;-56
2021/04/26 04:55:16;;;;;;;47.80;28.33;;;;;;;;;;5112836;28;20074;-57
2021/04/26 04:57:43;;;;;;;46.67;29.77;;;;;;;;;;5112974;28;20027;-56
2021/04/26 05:00:10;;;;;;;45.23;29.67;;;;;;;;;;5112684;28;20081;-57
2021/04/26 05:02:37;;;;;;;47.67;32.03;;;;;;;;;;5112850;28;20019;-56
2021/04/26 05:05:04;;;;;;;40.67;24.80;;;;;;;;;;5112822;28;20079;-57
2021/04/26 05:07:31;;;;;;;31.83;21.47;;;;;;;;;;5112651;28;20042;-58
2021/04/26 05:09:57;;;;;;;30.03;19.43;;;;;;;;;;5112714;28;20374;-56
2021/04/26 05:12:24;;;;;;;36.80;22.03;;;;;;;;;;5112971;28;20020;-56
2021/04/26 05:14:52;;;;;;;40.10;24.90;;;;;;;;;;5112824;28;20024;-56
2021/04/26 05:17:19;;;;;;;32.80;21.77;;;;;;;;;;5112789;28;20020;-56
2021/04/26 05:19:45;;;;;;;31.03;18.20;;;;;;;;;;5114054;28;20099;-56
2021/04/26 05:22:12;;;;;;;29.40;18.10;;;;;;;;;;5116471;28;20031;-57
2021/04/26 05:24:39;;;;;;;31.27;20.47;;;;;;;;;;5116469;28;20423;-56
2021/04/26 05:27:06;;;;;;;25.13;18.77;;;;;;;;;;5116029;27;20051;-56
2021/04/26 05:29:33;;;;;;;29.40;18.77;;;;;;;;;;5116270;28;20172;-56
2021/04/26 05:32:00;;;;;;;21.30;15.03;;;;;;;;;;5116382;28;20027;-56
2021/04/26 05:34:27;;;;;;;28.43;17.90;;;;;;;;;;5116380;28;20022;-56
2021/04/26 05:36:53;;;;;;;25.67;17.13;;;;;;;;;;5116150;28;20027;-56
2021/04/26 05:39:20;;;;;;;27.67;19.37;;;;;;;;;;5116032;28;20027;-56
2021/04/26 05:41:47;;;;;;;28.87;17.07;;;;;;;;;;5115988;28;20053;-56
2021/04/26 05:44:14;;;;;;;21.17;14.40;;;;;;;;;;5116293;28;20020;-56
2021/04/26 05:46:41;;;;;;;19.03;13.90;;;;;;;;;;5115940;28;20024;-56
2021/04/26 05:49:08;;;;;;;27.30;15.40;;;;;;;;;;5115901;28;20024;-56
2021/04/26 05:51:34;;;;;;;23.60;13.63;;;;;;;;;;5115850;28;20032;-56
2021/04/26 05:54:01;;;;;;;19.40;13.90;;;;;;;;;;5115847;28;20020;-56
2021/04/26 05:56:28;;;;;;;22.00;13.77;;;;;;;;;;5115987;28;20032;-56
2021/04/26 05:58:55;;;;;;;19.03;12.83;;;;;;;;;;5115738;28;20020;-57
2021/04/26 06:01:21;;;;;;;18.07;12.60;;;;;;;;;;5115553;28;20046;-56
2021/04/26 06:03:48;;;;;;;22.80;14.17;;;;;;;;;;5115754;28;20024;-56
2021/04/26 06:06:15;;;;;;;20.73;13.37;;;;;;;;;;5115622;28;20332;-56
2021/04/26 06:08:42;;;;;;;22.17;13.50;;;;;;;;;;5115623;28;20027;-56
2021/04/26 06:11:09;;;;;;;18.50;12.27;;;;;;;;;;5115404;28;20038;-56
2021/04/26 06:13:35;;;;;;;22.63;14.10;;;;;;;;;;5115591;28;20049;-56
2021/04/26 06:16:02;;;;;;;22.67;13.97;;;;;;;;;;5115439;28;20031;-56
2021/04/26 06:18:30;;;;;;;21.90;13.87;;;;;;;;;;5115496;28;20590;-56
2021/04/26 06:20:57;;;;;;;23.17;14.63;;;;;;;;;;5115209;28;20071;-57
2021/04/26 06:23:23;;;;;;;22.50;13.73;;;;;;;;;;5115350;28;20107;-56
2021/04/26 06:25:50;;;;;;;19.40;12.73;;;;;;;;;;5114897;27;20051;-56
2021/04/26 06:28:17;;;;;;;20.53;13.00;;;;;;;;;;5115334;28;20059;-56
2021/04/26 06:30:45;;;;;;;20.80;12.00;;;;;;;;;;5114554;28;20091;-56
2021/04/26 06:33:16;;;;;;;18.77;13.30;;;;;;;;;;5115002;28;20066;-56
2021/04/26 06:35:46;;;;;;;21.97;13.73;;;;;;;;;;5115050;28;20040;-56
2021/04/26 06:38:13;;;;;;;17.93;12.77;;;;;;;;;;5114976;28;20057;-56
2021/04/26 06:40:40;;;;;;;18.03;12.47;;;;;;;;;;5114889;28;20039;-56
2021/04/26 06:43:07;;;;;;;18.40;12.53;;;;;;;;;;5114881;28;20031;-56
2021/04/26 06:45:34;;;;;;;20.60;13.20;;;;;;;;;;5114970;28;20023;-56
2021/04/26 06:48:01;;;;;;;17.07;12.23;;;;;;;;;;5114644;28;20023;-56
2021/04/26 06:50:28;;;;;;;20.30;12.73;;;;;;;;;;5114738;28;20032;-56
2021/04/26 06:52:55;;;;;;;16.77;11.47;;;;;;;;;;5114846;28;20023;-56
2021/04/26 06:55:23;;;;;;;16.80;11.90;;;;;;;;;;5114764;28;20026;-56
2021/04/26 06:57:50;;;;;;;26.67;13.73;;;;;;;;;;5114643;28;20089;-56
2021/04/26 07:00:17;;;;;;;17.87;12.97;;;;;;;;;;5114500;28;20363;-56
2021/04/26 07:02:44;;;;;;;19.83;12.53;;;;;;;;;;5114456;28;20043;-56
2021/04/26 07:05:11;;;;;;;17.37;12.03;;;;;;;;;;5114601;28;20023;-56
2021/04/26 07:07:38;;;;;;;17.67;12.53;;;;;;;;;;5114413;28;20032;-56
2021/04/26 07:10:05;;;;;;;19.60;12.33;;;;;;;;;;5114396;28;20478;-56
2021/04/26 07:12:32;;;;;;;16.67;11.83;;;;;;;;;;5114255;28;20028;-56
2021/04/26 07:14:59;;;;;;;20.53;11.70;;;;;;;;;;5114387;28;20042;-56
2021/04/26 07:17:27;;;;;;;19.13;11.33;;;;;;;;;;5114510;28;20059;-56
2021/04/26 07:19:54;;;;;;;18.50;11.10;;;;;;;;;;5113992;28;20057;-56
2021/04/26 07:22:20;;;;;;;13.67;10.13;;;;;;;;;;5114131;28;20028;-56
2021/04/26 07:24:47;;;;;;;14.47;10.53;;;;;;;;;;5114026;28;20024;-56
2021/04/26 07:27:14;;;;;;;15.07;9.70;;;;;;;;;;5113689;27;20523;-56
2021/04/26 07:29:41;;;;;;;16.27;11.17;;;;;;;;;;5113967;28;20031;-56
2021/04/26 07:32:08;;;;;;;19.73;11.60;;;;;;;;;;5114018;28;20023;-56
2021/04/26 07:34:35;;;;;;;19.73;12.30;;;;;;;;;;5113846;28;20168;-56
2021/04/26 07:37:01;;;;;;;17.70;10.87;;;;;;;;;;5113861;28;20016;-56
2021/04/26 07:39:28;;;;;;;17.80;10.63;;;;;;;;;;5113734;28;20023;-56
2021/04/26 07:41:55;;;;;;;15.87;9.77;;;;;;;;;;5113735;28;20165;-56
2021/04/26 07:44:22;;;;;;;15.97;11.03;;;;;;;;;;5112861;28;20027;-56
2021/04/26 07:46:49;;;;;;;14.03;9.90;;;;;;;;;;5113637;28;20024;-56
2021/04/26 07:49:16;;;;;;;15.70;10.23;;;;;;;;;;5113692;28;20026;-56
2021/04/26 07:51:42;;;;;;;14.20;9.40;;;;;;;;;;5113601;28;20470;-56
2021/04/26 07:54:09;;;;;;;18.73;11.07;;;;;;;;;;5113915;28;20016;-56
2021/04/26 07:56:36;;;;;;;15.13;10.70;;;;;;;;;;5113564;28;20028;-56
2021/04/26 07:59:03;;;;;;;16.77;10.53;;;;;;;;;;5113463;28;20020;-56
2021/04/26 08:01:30;;;;;;;23.67;11.27;;;;;;;;;;5113323;28;20428;-56
2021/04/26 08:03:57;;;;;;;15.70;10.17;;;;;;;;;;5113434;28;20080;-56
2021/04/26 08:06:24;;;;;;;16.27;9.87;;;;;;;;;;5113393;28;20023;-56
2021/04/26 08:08:50;;;;;;;15.80;9.80;;;;;;;;;;5113395;28;20027;-56
2021/04/26 08:11:17;;;;;;;14.77;9.83;;;;;;;;;;5113349;28;20036;-56
2021/04/26 08:13:44;;;;;;;12.17;8.57;;;;;;;;;;5113366;28;20035;-56
2021/04/26 08:16:11;;;;;;;17.67;10.90;;;;;;;;;;5113449;28;20027;-56
2021/04/26 08:18:38;;;;;;;13.23;8.90;;;;;;;;;;5113317;28;20028;-56
2021/04/26 08:21:05;;;;;;;13.80;9.10;;;;;;;;;;5113182;28;20070;-56
2021/04/26 08:23:32;;;;;;;13.60;9.50;;;;;;;;;;5113625;28;20073;-56
2021/04/26 08:25:59;;;;;;;14.97;9.87;;;;;;;;;;5112854;28;20047;-57
2021/04/26 08:28:27;;;;;;;22.50;11.07;;;;;;;;;;5113282;28;20022;-56
2021/04/26 08:30:53;;;;;;;14.30;10.00;;;;;;;;;;5112989;28;20482;-56
2021/04/26 08:33:20;;;;;;;18.00;9.47;;;;;;;;;;5113117;28;20483;-56
2021/04/26 08:35:47;;;;;;;14.97;9.07;;;;;;;;;;5113093;28;20070;-56
2021/04/26 08:38:14;;;;;;;13.87;9.40;;;;;;;;;;5113102;28;20047;-56
2021/04/26 08:40:41;;;;;;;16.87;10.00;;;;;;;;;;5112952;28;20063;-56
2021/04/26 08:43:08;;;;;;;14.03;10.03;;;;;;;;;;5112984;28;20031;-56
2021/04/26 08:45:35;;;;;;;13.77;9.47;;;;;;;;;;5113002;28;20383;-56
2021/04/26 08:48:03;;;;;;;12.60;8.97;;;;;;;;;;5113029;28;20031;-56
2021/04/26 08:50:30;;;;;;;15.80;8.07;;;;;;;;;;5113033;28;20024;-56
2021/04/26 08:52:57;;;;;;;18.33;9.70;;;;;;;;;;5112967;28;20378;-56
2021/04/26 08:55:24;;;;;;;14.50;8.90;;;;;;;;;;5115539;28;20101;-56
2021/04/26 08:57:51;;;;;;;15.80;9.10;;;;;;;;;;5116995;28;20034;-56
2021/04/26 09:00:19;;;;;;;13.53;9.37;;;;;;;;;;5116851;28;20036;-56
2021/04/26 09:02:45;;;;;;;14.20;9.50;;;;;;;;;;5116861;28;20363;-56
2021/04/26 09:05:21;;;;;;;18.33;9.33;;;;;;;;;;5116885;28;20421;-56
2021/04/26 09:07:50;;;;;;;15.53;9.83;;;;;;;;;;5117139;28;20040;-56
2021/04/26 09:10:17;;;;;;;15.97;9.07;;;;;;;;;;5116727;28;20035;-56
2021/04/26 09:12:44;;;;;;;13.23;9.40;;;;;;;;;;5117075;28;20253;-56
2021/04/26 09:15:11;;;;;;;13.43;8.50;;;;;;;;;;5116670;28;20047;-56
2021/04/26 09:17:44;;;;;;;10.83;7.60;;;;;;;;;;5116664;28;20426;-56
2021/04/26 09:20:17;;;;;;;16.00;9.37;;;;;;;;;;5116763;28;20040;-56
2021/04/26 09:22:45;;;;;;;16.33;9.57;;;;;;;;;;5116823;28;20039;-56
2021/04/26 09:25:19;;;;;;;16.63;9.43;;;;;;;;;;5116511;28;20028;-56
2021/04/26 09:27:52;;;;;;;18.13;10.63;;;;;;;;;;5116082;28;20078;-56
2021/04/26 09:30:35;;;;;;;19.67;11.33;;;;;;;;;;5116283;28;20039;-56
2021/04/26 09:33:17;;;;;;;19.37;11.40;;;;;;;;;;5116361;28;20024;-56
2021/04/26 09:35:45;;;;;;;16.27;10.13;;;;;;;;;;5116483;28;20284;-56
2021/04/26 09:38:24;;;;;;;14.37;9.70;;;;;;;;;;5116472;28;20367;-56
2021/04/26 09:41:11;;;;;;;14.93;9.77;;;;;;;;;;5116058;28;20634;-56
2021/04/26 09:43:38;;;;;;;18.87;11.47;;;;;;;;;;5116054;28;20263;-56
2021/04/26 09:46:05;;;;;;;21.03;10.67;;;;;;;;;;5115907;28;20020;-56
2021/04/26 09:48:33;;;;;;;21.67;11.87;;;;;;;;;;5116002;28;20378;-56
2021/04/26 09:50:59;;;;;;;19.20;11.23;;;;;;;;;;5115821;28;20252;-56
2021/04/26 09:53:27;;;;;;;20.30;12.13;;;;;;;;;;5116127;28;20024;-56
2021/04/26 09:55:55;;;;;;;18.37;11.03;;;;;;;;;;5115872;28;20256;-56
2021/04/26 09:58:22;;;;;;;22.30;11.10;;;;;;;;;;5115801;28;20251;-56
2021/04/26 10:00:49;;;;;;;20.57;11.80;;;;;;;;;;5115570;28;20638;-56
2021/04/26 10:03:17;;;;;;;20.00;10.33;;;;;;;;;;5115664;28;20284;-56
2021/04/26 10:05:45;;;;;;;18.80;10.83;;;;;;;;;;5114854;28;20610;-56
2021/04/26 10:08:13;;;;;;;19.67;11.13;;;;;;;;;;5115373;28;20251;-56
2021/04/26 10:10:41;;;;;;;28.33;13.13;;;;;;;;;;5115403;28;20291;-56
2021/04/26 10:13:07;;;;;;;15.87;9.67;;;;;;;;;;5115630;28;20297;-56
2021/04/26 10:15:36;;;;;;;14.27;10.03;;;;;;;;;;5115466;28;20662;-56
2021/04/26 10:18:04;;;;;;;19.67;11.00;;;;;;;;;;5115887;28;20331;-56
2021/04/26 10:20:41;;;;;;;17.10;9.70;;;;;;;;;;5115179;28;20276;-56
2021/04/26 10:23:26;;;;;;;17.23;9.57;;;;;;;;;;5115371;28;20270;-56
2021/04/26 10:25:53;;;;;;;16.60;9.15;;;;;;;;;;5114940;27;20280;-56
2021/04/26 10:28:29;;;;;;;13.10;9.07;;;;;;;;;;5115189;28;20035;-56
2021/04/26 10:31:00;;;;;;;13.70;9.07;;;;;;;;;;5115112;28;20248;-56
2021/04/26 10:33:27;;;;;;;13.27;8.43;;;;;;;;;;5115240;28;20248;-56
2021/04/26 10:35:55;;;;;;;15.23;8.37;;;;;;;;;;5115178;28;20663;-56
2021/04/26 10:38:35;;;;;;;15.33;9.03;;;;;;;;;;5115237;28;20244;-56
2021/04/26 10:41:03;;;;;;;15.83;9.00;;;;;;;;;;5114898;28;20276;-56
2021/04/26 10:43:30;;;;;;;19.03;10.00;;;;;;;;;;5115041;28;20735;-56
2021/04/26 10:46:15;;;;;;;15.50;9.33;;;;;;;;;;5115002;28;20256;-56
2021/04/26 10:49:00;;;;;;;15.60;9.57;;;;;;;;;;5114921;28;20255;-56
2021/04/26 10:51:27;;;;;;;13.10;7.70;;;;;;;;;;5114898;28;20467;-56
2021/04/26 10:53:54;;;;;;;14.03;8.03;;;;;;;;;;5114769;28;20028;-56
2021/04/26 10:56:27;;;;;;;12.93;8.43;;;;;;;;;;5114798;28;20248;-56
2021/04/26 10:59:17;;;;;;;15.70;8.23;;;;;;;;;;5114741;28;20251;-56
2021/04/26 11:01:52;;;;;;;16.50;8.70;;;;;;;;;;5114258;28;20287;-56
2021/04/26 11:04:20;;;;;;;12.90;8.80;;;;;;;;;;5114588;28;20677;-56
2021/04/26 11:07:05;;;;;;;15.43;9.63;;;;;;;;;;5096242;28;20766;-56
2021/04/26 11:09:38;;;;;;;17.70;10.48;;;;;;;;;;5114406;28;20240;-56
2021/04/26 11:12:25;;;;;;;21.23;10.13;;;;;;;;;;5114523;28;20525;-56
2021/04/26 11:14:52;;;;;;;15.07;8.60;;;;;;;;;;5114164;28;20648;-56
2021/04/26 11:17:25;;;;;;;13.37;8.17;;;;;;;;;;5114166;28;20339;-56
2021/04/26 11:20:13;;;;;;;13.93;9.63;;;;;;;;;;5114133;28;20256;-56
2021/04/26 11:22:40;;;;;;;14.47;9.60;;;;;;;;;;5114143;28;20287;-56
2021/04/26 11:25:08;;;;;;;17.27;10.20;;;;;;;;;;5114222;28;20637;-56
2021/04/26 11:27:35;;;;;;;15.27;9.77;;;;;;;;;;5113739;27;20295;-56
2021/04/26 11:30:02;;;;;;;15.73;9.20;;;;;;;;;;5113934;28;20256;-56
2021/04/26 11:32:29;;;;;;;16.83;10.53;;;;;;;;;;5114345;28;20342;-56
2021/04/26 11:34:59;;;;;;;21.53;10.77;;;;;;;;;;5113863;28;20388;-56
2021/04/26 11:37:45;;;;;;;14.20;9.33;;;;;;;;;;5113986;28;20259;-56
2021/04/26 11:40:16;;;;;;;19.20;10.25;;;;;;;;;;5113823;28;20244;-56
2021/04/26 11:42:42;;;;;;;13.67;8.37;;;;;;;;;;5113961;28;20047;-56
2021/04/26 11:45:10;;;;;;;13.63;7.73;;;;;;;;;;5113700;28;20248;-56
2021/04/26 11:47:37;;;;;;;17.47;10.00;;;;;;;;;;5113725;28;20750;-55
2021/04/26 11:50:05;;;;;;;15.57;8.77;;;;;;;;;;5113587;28;20323;-55
2021/04/26 11:52:33;;;;;;;16.80;10.00;;;;;;;;;;5113932;28;20344;-55
2021/04/26 11:55:03;;;;;;;12.83;7.90;;;;;;;;;;5113729;28;20240;-55
2021/04/26 11:57:30;;;;;;;17.20;8.50;;;;;;;;;;5113717;28;20256;-55
2021/04/26 12:00:01;;;;;;;13.90;8.07;;;;;;;;;;5113434;28;20282;-55
2021/04/26 12:02:32;;;;;;;22.30;8.80;;;;;;;;;;5113586;28;20294;-55
2021/04/26 12:05:02;;;;;;;13.37;7.50;;;;;;;;;;5113464;28;20271;-55
2021/04/26 12:07:30;;;;;;;12.87;7.63;;;;;;;;;;5113436;28;20244;-55
2021/04/26 12:09:58;;;;;;;12.60;7.67;;;;;;;;;;5113525;28;20284;-55
2021/04/26 12:12:28;;;;;;;16.37;6.57;;;;;;;;;;5113501;28;20251;-55
2021/04/26 12:14:57;;;;;;;13.33;7.57;;;;;;;;;;5113785;28;20244;-55
2021/04/26 12:17:31;;;;;;;11.77;6.27;;;;;;;;;;5113369;28;20600;-55
2021/04/26 12:19:58;;;;;;;12.80;7.18;;;;;;;;;;5113154;28;20248;-56
2021/04/26 12:22:25;;;;;;;11.60;6.63;;;;;;;;;;5113276;28;20048;-56
2021/04/26 12:24:54;;;;;;;16.90;9.50;;;;;;;;;;5113346;28;20583;-56
2021/04/26 12:27:26;;;;;;;19.03;11.13;;;;;;;;;;5112802;28;20368;-56
2021/04/26 12:29:53;;;;;;;19.23;12.03;;;;;;;;;;5116971;28;20243;-56
2021/04/26 12:32:27;;;;;;;22.33;12.17;;;;;;;;;;5119961;28;20268;-56
2021/04/26 12:34:55;;;;;;;21.37;9.90;;;;;;;;;;5119878;28;20397;-56
2021/04/26 12:37:26;;;;;;;18.97;8.80;;;;;;;;;;5120082;28;20240;-56
2021/04/26 12:39:53;;;;;;;19.53;9.33;;;;;;;;;;5119868;28;20248;-56
2021/04/26 12:42:21;;;;;;;18.43;10.60;;;;;;;;;;5119857;28;20279;-56
2021/04/26 12:44:49;;;;;;;18.20;8.93;;;;;;;;;;5119832;28;20262;-56
2021/04/26 12:47:25;;;;;;;15.60;9.20;;;;;;;;;;5119969;28;20255;-56
2021/04/26 12:50:26;;;;;;;21.33;10.63;;;;;;;;;;5119892;28;20302;-56
2021/04/26 12:53:05;;;;;;;15.50;9.83;;;;;;;;;;5065384;28;20313;-56
2021/04/26 12:55:33;;;;;;;16.30;9.93;;;;;;;;;;5119805;28;20293;-56
2021/04/26 12:58:16;;;;;;;18.13;8.77;;;;;;;;;;5119864;28;20262;-56
2021/04/26 13:00:50;;;;;;;15.83;8.97;;;;;;;;;;5119908;28;20345;-56
2021/04/26 13:03:23;;;;;;;20.70;9.83;;;;;;;;;;5119762;28;20244;-56
2021/04/26 13:05:50;;;;;;;19.60;9.70;;;;;;;;;;5119724;28;20251;-56
2021/04/26 13:08:20;;;;;;;16.53;10.63;;;;;;;;;;5119666;28;20244;-56
2021/04/26 13:10:47;;;;;;;19.87;10.83;;;;;;;;;;5119677;28;20256;-56
2021/04/26 13:13:14;;;;;;;23.60;11.73;;;;;;;;;;5119658;28;20334;-56
2021/04/26 13:15:40;;;;;;;23.77;11.97;;;;;;;;;;5119558;28;20298;-56
2021/04/26 13:18:21;;;;;;;16.10;9.90;;;;;;;;;;5119567;28;20309;-56
2021/04/26 13:21:05;;;;;;;15.87;9.93;;;;;;;;;;5119413;28;20315;-56
2021/04/26 13:23:35;;;;;;;16.17;9.07;;;;;;;;;;5119788;28;20653;-56
2021/04/26 13:26:02;;;;;;;16.07;9.73;;;;;;;;;;5119591;27;20247;-56
2021/04/26 13:28:33;;;;;;;16.43;9.77;;;;;;;;;;5118799;28;20043;-56
2021/04/26 13:31:02;;;;;;;15.40;9.60;;;;;;;;;;5101093;28;20482;-56
2021/04/26 13:33:30;;;;;;;20.40;10.10;;;;;;;;;;5119427;28;20027;-57
2021/04/26 13:35:58;;;;;;;21.27;11.90;;;;;;;;;;5119424;28;20027;-56
2021/04/26 13:38:26;;;;;;;19.67;10.80;;;;;;;;;;5119453;28;20106;-57
2021/04/26 13:40:54;;;;;;;15.33;10.83;;;;;;;;;;5117912;28;20069;-57
2021/04/26 13:43:21;;;;;;;18.43;11.13;;;;;;;;;;5116078;28;20509;-57
2021/04/26 13:45:49;;;;;;;18.63;10.67;;;;;;;;;;5116186;28;20024;-57
2021/04/26 13:48:15;;;;;;;19.83;11.00;;;;;;;;;;5115954;28;20390;-57
2021/04/26 13:50:43;;;;;;;23.00;11.90;;;;;;;;;;5115941;28;20024;-57
2021/04/26 13:53:10;;;;;;;22.57;14.17;;;;;;;;;;5115889;28;20031;-57
2021/04/26 13:55:37;;;;;;;32.43;15.67;;;;;;;;;;5116183;28;20024;-57
2021/04/26 13:58:04;;;;;;;26.27;14.90;;;;;;;;;;5115764;28;20363;-57
2021/04/26 14:00:33;;;;;;;28.07;16.00;;;;;;;;;;5115835;28;20036;-57
2021/04/26 14:03:00;;;;;;;21.20;13.27;;;;;;;;;;5115761;28;20046;-57
2021/04/26 14:05:27;;;;;;;20.63;13.00;;;;;;;;;;5115791;28;20032;-57
2021/04/26 14:07:54;;;;;;;42.67;18.10;;;;;;;;;;5115694;28;20478;-57
2021/04/26 14:10:21;;;;;;;27.23;16.97;;;;;;;;;;5115523;28;20050;-57
2021/04/26 14:12:48;;;;;;;27.27;17.73;;;;;;;;;;5115618;28;20066;-57
2021/04/26 14:15:15;;;;;;;34.73;19.60;;;;;;;;;;5115467;28;20386;-57
2021/04/26 14:17:42;;;;;;;30.70;20.17;;;;;;;;;;5115444;28;20099;-57
2021/04/26 14:20:09;;;;;;;37.20;23.00;;;;;;;;;;5115286;28;20031;-57
2021/04/26 14:22:36;;;;;;;37.03;23.13;;;;;;;;;;5115420;28;20393;-57
2021/04/26 14:25:09;;;;;;;43.30;25.00;;;;;;;;;;5115417;28;20070;-57
2021/04/26 14:27:43;;;;;;;42.13;25.37;;;;;;;;;;5114766;27;20052;-57
2021/04/26 14:30:10;;;;;;;70.27;39.43;;;;;;;;;;5115279;28;20015;-57
2021/04/26 14:32:37;;;;;;;62.23;36.17;;;;;;;;;;5115166;28;20161;-57